sensor_id;sensor_type;location;lat;lon;timestamp;temperature;humidity
17565;DHT22;62994;52.126;5.596;2024-02-14T00:01:22;8.90;99.90
17565;DHT22;62994;52.126;5.596;2024-02-14T00:03:55;8.90;99.90
17565;DHT22;62994;52.126;5.596;2024-02-14T00:06:22;8.90;99.90
17565;DHT22;62994;52.126;5.596;2024-02-14T00:08:50;9.00;99.90
17565;DHT22;62994;52.126;5.596;2024-02-14T00:11:18;9.00;99.90
17565;DHT22;62994;52.126;5.596;2024-02-14T00:13:45;9.00;99.90
17565;DHT22;62994;52.126;5.596;2024-02-14T00:16:12;9.00;99.90
17565;DHT22;62994;52.126;5.596;2024-02-14T00:18:40;8.90;99.90
17565;DHT22;62994;52.126;5.596;2024-02-14T00:21:07;8.90;99.90
17565;DHT22;62994;52.126;5.596;2024-02-14T00:23:35;8.90;99.90
17565;DHT22;62994;52.126;5.596;2024-02-14T00:26:02;8.90;99.90
17565;DHT22;62994;52.126;5.596;2024-02-14T00:28:29;8.90;99.90
17565;DHT22;62994;52.126;5.596;2024-02-14T00:30:56;8.90;99.90
17565;DHT22;62994;52.126;5.596;2024-02-14T00:33:25;9.00;99.90
17565;DHT22;62994;52.126;5.596;2024-02-14T00:35:54;9.00;99.90
17565;DHT22;62994;52.126;5.596;2024-02-14T00:38:21;9.00;99.90
17565;DHT22;62994;52.126;5.596;2024-02-14T00:40:47;9.00;99.90
17565;DHT22;62994;52.126;5.596;2024-02-14T00:43:15;9.00;99.90
17565;DHT22;62994;52.126;5.596;2024-02-14T00:45:42;9.00;99.90
17565;DHT22;62994;52.126;5.596;2024-02-14T00:48:09;9.00;99.90
17565;DHT22;62994;52.126;5.596;2024-02-14T00:50:36;9.00;99.90
17565;DHT22;62994;52.126;5.596;2024-02-14T00:53:05;9.00;99.90
17565;DHT22;62994;52.126;5.596;2024-02-14T00:55:32;9.00;99.90
17565;DHT22;62994;52.126;5.596;2024-02-14T00:57:59;9.10;99.90
17565;DHT22;62994;52.126;5.596;2024-02-14T01:00:26;9.10;99.90
17565;DHT22;62994;52.126;5.596;2024-02-14T01:02:53;9.20;99.90
17565;DHT22;62994;52.126;5.596;2024-02-14T01:05:21;9.10;99.90
17565;DHT22;62994;52.126;5.596;2024-02-14T01:07:48;9.20;99.90
17565;DHT22;62994;52.126;5.596;2024-02-14T01:10:17;9.20;99.90
17565;DHT22;62994;52.126;5.596;2024-02-14T01:12:44;9.20;99.90
17565;DHT22;62994;52.126;5.596;2024-02-14T01:15:11;9.20;99.90
17565;DHT22;62994;52.126;5.596;2024-02-14T01:17:38;9.20;99.90
17565;DHT22;62994;52.126;5.596;2024-02-14T01:20:07;9.20;99.90
17565;DHT22;62994;52.126;5.596;2024-02-14T01:22:35;9.30;99.90
17565;DHT22;62994;52.126;5.596;2024-02-14T01:25:03;9.30;99.90
17565;DHT22;62994;52.126;5.596;2024-02-14T01:27:31;9.30;99.90
17565;DHT22;62994;52.126;5.596;2024-02-14T01:29:59;9.30;99.90
17565;DHT22;62994;52.126;5.596;2024-02-14T01:32:26;9.30;99.90
17565;DHT22;62994;52.126;5.596;2024-02-14T01:34:55;9.30;99.90
17565;DHT22;62994;52.126;5.596;2024-02-14T01:37:22;9.40;99.90
17565;DHT22;62994;52.126;5.596;2024-02-14T01:39:49;9.40;99.90
17565;DHT22;62994;52.126;5.596;2024-02-14T01:42:17;9.40;99.90
17565;DHT22;62994;52.126;5.596;2024-02-14T01:44:46;9.40;99.90
17565;DHT22;62994;52.126;5.596;2024-02-14T01:47:13;9.40;99.90
17565;DHT22;62994;52.126;5.596;2024-02-14T01:49:41;9.40;99.90
17565;DHT22;62994;52.126;5.596;2024-02-14T01:52:09;9.40;99.90
17565;DHT22;62994;52.126;5.596;2024-02-14T01:54:37;9.40;99.90
17565;DHT22;62994;52.126;5.596;2024-02-14T01:57:05;9.40;99.90
17565;DHT22;62994;52.126;5.596;2024-02-14T01:59:33;9.50;99.90
17565;DHT22;62994;52.126;5.596;2024-02-14T02:02:03;9.50;99.90
17565;DHT22;62994;52.126;5.596;2024-02-14T02:04:33;9.50;99.90
17565;DHT22;62994;52.126;5.596;2024-02-14T02:07:00;9.50;99.90
17565;DHT22;62994;52.126;5.596;2024-02-14T02:09:27;9.50;99.90
17565;DHT22;62994;52.126;5.596;2024-02-14T02:11:57;9.60;99.90
17565;DHT22;62994;52.126;5.596;2024-02-14T02:14:24;9.60;99.90
17565;DHT22;62994;52.126;5.596;2024-02-14T02:16:56;9.60;99.90
17565;DHT22;62994;52.126;5.596;2024-02-14T02:19:25;9.60;99.90
17565;DHT22;62994;52.126;5.596;2024-02-14T02:21:52;9.60;99.90
17565;DHT22;62994;52.126;5.596;2024-02-14T02:24:20;9.60;99.90
17565;DHT22;62994;52.126;5.596;2024-02-14T02:26:47;9.60;99.90
17565;DHT22;62994;52.126;5.596;2024-02-14T02:29:14;9.60;99.90
17565;DHT22;62994;52.126;5.596;2024-02-14T02:31:42;9.60;99.90
17565;DHT22;62994;52.126;5.596;2024-02-14T02:34:09;9.70;99.90
17565;DHT22;62994;52.126;5.596;2024-02-14T02:36:36;9.70;99.90
17565;DHT22;62994;52.126;5.596;2024-02-14T02:39:03;9.70;99.90
17565;DHT22;62994;52.126;5.596;2024-02-14T02:41:32;9.70;99.90
17565;DHT22;62994;52.126;5.596;2024-02-14T02:43:59;9.70;99.90
17565;DHT22;62994;52.126;5.596;2024-02-14T02:46:27;9.70;99.90
17565;DHT22;62994;52.126;5.596;2024-02-14T02:48:55;9.80;99.90
17565;DHT22;62994;52.126;5.596;2024-02-14T02:51:24;9.80;99.90
17565;DHT22;62994;52.126;5.596;2024-02-14T02:53:51;9.70;99.90
17565;DHT22;62994;52.126;5.596;2024-02-14T02:56:18;9.80;99.90
17565;DHT22;62994;52.126;5.596;2024-02-14T02:58:48;9.80;99.90
17565;DHT22;62994;52.126;5.596;2024-02-14T03:01:15;9.80;99.90
17565;DHT22;62994;52.126;5.596;2024-02-14T03:03:42;9.80;99.90
17565;DHT22;62994;52.126;5.596;2024-02-14T03:06:09;9.80;99.90
17565;DHT22;62994;52.126;5.596;2024-02-14T03:08:37;9.80;99.90
17565;DHT22;62994;52.126;5.596;2024-02-14T03:11:09;9.80;99.90
17565;DHT22;62994;52.126;5.596;2024-02-14T03:13:36;9.80;99.90
17565;DHT22;62994;52.126;5.596;2024-02-14T03:16:07;9.80;99.90
17565;DHT22;62994;52.126;5.596;2024-02-14T03:18:34;9.80;99.90
17565;DHT22;62994;52.126;5.596;2024-02-14T03:21:03;9.80;99.90
17565;DHT22;62994;52.126;5.596;2024-02-14T03:23:31;9.80;99.90
17565;DHT22;62994;52.126;5.596;2024-02-14T03:25:58;9.80;99.90
17565;DHT22;62994;52.126;5.596;2024-02-14T03:28:25;9.80;99.90
17565;DHT22;62994;52.126;5.596;2024-02-14T03:30:53;9.80;99.90
17565;DHT22;62994;52.126;5.596;2024-02-14T03:33:21;9.90;99.90
17565;DHT22;62994;52.126;5.596;2024-02-14T03:35:48;9.90;99.90
17565;DHT22;62994;52.126;5.596;2024-02-14T03:38:25;9.90;99.90
17565;DHT22;62994;52.126;5.596;2024-02-14T03:40:52;9.90;99.90
17565;DHT22;62994;52.126;5.596;2024-02-14T03:43:19;9.90;99.90
17565;DHT22;62994;52.126;5.596;2024-02-14T03:45:49;9.90;99.90
17565;DHT22;62994;52.126;5.596;2024-02-14T03:48:17;10.00;99.90
17565;DHT22;62994;52.126;5.596;2024-02-14T03:50:45;10.00;99.90
17565;DHT22;62994;52.126;5.596;2024-02-14T03:53:12;10.00;99.90
17565;DHT22;62994;52.126;5.596;2024-02-14T03:55:40;10.10;99.90
17565;DHT22;62994;52.126;5.596;2024-02-14T03:58:07;10.10;99.90
17565;DHT22;62994;52.126;5.596;2024-02-14T04:00:34;10.10;99.90
17565;DHT22;62994;52.126;5.596;2024-02-14T04:03:02;10.10;99.90
17565;DHT22;62994;52.126;5.596;2024-02-14T04:05:29;10.10;99.90
17565;DHT22;62994;52.126;5.596;2024-02-14T04:07:57;10.20;99.90
17565;DHT22;62994;52.126;5.596;2024-02-14T04:10:24;10.20;99.90
17565;DHT22;62994;52.126;5.596;2024-02-14T04:12:51;10.20;99.90
17565;DHT22;62994;52.126;5.596;2024-02-14T04:15:18;10.20;99.90
17565;DHT22;62994;52.126;5.596;2024-02-14T04:17:45;10.20;99.90
17565;DHT22;62994;52.126;5.596;2024-02-14T04:20:12;10.20;99.90
17565;DHT22;62994;52.126;5.596;2024-02-14T04:22:39;10.30;99.90
17565;DHT22;62994;52.126;5.596;2024-02-14T04:25:09;10.30;99.90
17565;DHT22;62994;52.126;5.596;2024-02-14T04:27:36;10.30;99.90
17565;DHT22;62994;52.126;5.596;2024-02-14T04:30:04;10.30;99.90
17565;DHT22;62994;52.126;5.596;2024-02-14T04:32:31;10.40;99.90
17565;DHT22;62994;52.126;5.596;2024-02-14T04:34:58;10.40;99.90
17565;DHT22;62994;52.126;5.596;2024-02-14T04:37:25;10.40;99.90
17565;DHT22;62994;52.126;5.596;2024-02-14T04:40:00;10.40;99.90
17565;DHT22;62994;52.126;5.596;2024-02-14T04:43:16;10.40;99.90
17565;DHT22;62994;52.126;5.596;2024-02-14T04:46:03;10.00;99.90
17565;DHT22;62994;52.126;5.596;2024-02-14T04:49:01;10.40;99.90
17565;DHT22;62994;52.126;5.596;2024-02-14T04:53:07;10.50;99.90
17565;DHT22;62994;52.126;5.596;2024-02-14T04:58:52;10.50;99.90
17565;DHT22;62994;52.126;5.596;2024-02-14T05:04:30;10.60;99.90
17565;DHT22;62994;52.126;5.596;2024-02-14T05:07:34;10.60;99.90
17565;DHT22;62994;52.126;5.596;2024-02-14T05:10:26;10.10;99.90
17565;DHT22;62994;52.126;5.596;2024-02-14T05:13:41;10.60;99.90
17565;DHT22;62994;52.126;5.596;2024-02-14T05:16:41;10.60;99.90
17565;DHT22;62994;52.126;5.596;2024-02-14T05:19:36;10.60;99.90
17565;DHT22;62994;52.126;5.596;2024-02-14T05:22:25;10.60;99.90
17565;DHT22;62994;52.126;5.596;2024-02-14T05:27:22;10.60;99.90
17565;DHT22;62994;52.126;5.596;2024-02-14T05:31:54;10.60;99.90
17565;DHT22;62994;52.126;5.596;2024-02-14T05:35:02;10.70;99.90
17565;DHT22;62994;52.126;5.596;2024-02-14T05:37:47;11.40;99.90
17565;DHT22;62994;52.126;5.596;2024-02-14T05:40:32;10.70;99.90
17565;DHT22;62994;52.126;5.596;2024-02-14T05:43:41;11.20;99.90
17565;DHT22;62994;52.126;5.596;2024-02-14T05:46:25;10.50;99.90
17565;DHT22;62994;52.126;5.596;2024-02-14T05:49:10;10.90;99.90
17565;DHT22;62994;52.126;5.596;2024-02-14T05:52:11;10.80;99.90
17565;DHT22;62994;52.126;5.596;2024-02-14T05:55:59;10.70;99.90
17565;DHT22;62994;52.126;5.596;2024-02-14T05:58:37;10.80;99.90
17565;DHT22;62994;52.126;5.596;2024-02-14T06:01:22;10.80;99.90
17565;DHT22;62994;52.126;5.596;2024-02-14T06:14:11;10.80;99.90
17565;DHT22;62994;52.126;5.596;2024-02-14T06:17:57;10.90;99.90
17565;DHT22;62994;52.126;5.596;2024-02-14T06:20:19;10.90;99.90
17565;DHT22;62994;52.126;5.596;2024-02-14T06:23:43;10.90;99.90
17565;DHT22;62994;52.126;5.596;2024-02-14T06:26:21;10.80;99.90
17565;DHT22;62994;52.126;5.596;2024-02-14T06:29:29;10.80;99.90
17565;DHT22;62994;52.126;5.596;2024-02-14T06:32:26;10.80;99.90
17565;DHT22;62994;52.126;5.596;2024-02-14T06:35:13;10.50;99.90
17565;DHT22;62994;52.126;5.596;2024-02-14T06:52:19;10.90;99.90
17565;DHT22;62994;52.126;5.596;2024-02-14T06:54:17;11.10;99.90
17565;DHT22;62994;52.126;5.596;2024-02-14T06:57:39;10.90;99.90
17565;DHT22;62994;52.126;5.596;2024-02-14T07:00:49;10.90;99.90
17565;DHT22;62994;52.126;5.596;2024-02-14T07:03:50;10.80;99.90
17565;DHT22;62994;52.126;5.596;2024-02-14T07:07:00;10.20;99.90
17565;DHT22;62994;52.126;5.596;2024-02-14T07:10:29;10.90;99.90
17565;DHT22;62994;52.126;5.596;2024-02-14T07:17:10;10.90;99.90
17565;DHT22;62994;52.126;5.596;2024-02-14T07:20:23;10.80;99.90
17565;DHT22;62994;52.126;5.596;2024-02-14T07:23:24;10.90;99.90
17565;DHT22;62994;52.126;5.596;2024-02-14T07:27:05;10.90;99.90
17565;DHT22;62994;52.126;5.596;2024-02-14T07:29:38;10.90;99.90
17565;DHT22;62994;52.126;5.596;2024-02-14T07:33:08;11.00;99.90
17565;DHT22;62994;52.126;5.596;2024-02-14T07:42:46;11.00;99.90
17565;DHT22;62994;52.126;5.596;2024-02-14T07:49:00;11.00;99.90
17565;DHT22;62994;52.126;5.596;2024-02-14T08:01:31;11.00;99.90
17565;DHT22;62994;52.126;5.596;2024-02-14T08:04:56;11.10;99.90
17565;DHT22;62994;52.126;5.596;2024-02-14T08:08:03;11.10;99.90
17565;DHT22;62994;52.126;5.596;2024-02-14T08:10:34;11.20;99.90
17565;DHT22;62994;52.126;5.596;2024-02-14T08:13:41;11.10;99.90
17565;DHT22;62994;52.126;5.596;2024-02-14T08:16:40;11.10;99.90
17565;DHT22;62994;52.126;5.596;2024-02-14T08:19:35;11.10;99.90
17565;DHT22;62994;52.126;5.596;2024-02-14T08:22:29;11.20;99.90
17565;DHT22;62994;52.126;5.596;2024-02-14T08:25:26;11.10;99.90
17565;DHT22;62994;52.126;5.596;2024-02-14T08:45:14;10.90;99.90
17565;DHT22;62994;52.126;5.596;2024-02-14T08:49:02;11.30;99.90
17565;DHT22;62994;52.126;5.596;2024-02-14T08:51:47;11.20;99.90
17565;DHT22;62994;52.126;5.596;2024-02-14T08:57:49;11.30;99.90
17565;DHT22;62994;52.126;5.596;2024-02-14T09:01:02;11.30;99.90
17565;DHT22;62994;52.126;5.596;2024-02-14T09:03:54;11.90;99.90
17565;DHT22;62994;52.126;5.596;2024-02-14T09:06:40;11.30;99.90
17565;DHT22;62994;52.126;5.596;2024-02-14T09:20:37;11.40;99.90
17565;DHT22;62994;52.126;5.596;2024-02-14T09:22:09;11.40;99.90
17565;DHT22;62994;52.126;5.596;2024-02-14T09:28:39;11.50;99.90
17565;DHT22;62994;52.126;5.596;2024-02-14T09:41:53;11.40;99.90
17565;DHT22;62994;52.126;5.596;2024-02-14T09:48:43;11.60;99.90
17565;DHT22;62994;52.126;5.596;2024-02-14T09:51:32;11.90;99.90
17565;DHT22;62994;52.126;5.596;2024-02-14T09:55:26;11.50;99.90
17565;DHT22;62994;52.126;5.596;2024-02-14T09:57:31;11.80;99.90
17565;DHT22;62994;52.126;5.596;2024-02-14T10:04:13;11.50;99.90
17565;DHT22;62994;52.126;5.596;2024-02-14T10:10:56;11.60;99.90
17565;DHT22;62994;52.126;5.596;2024-02-14T10:14:06;11.60;99.90
17565;DHT22;62994;52.126;5.596;2024-02-14T10:18:19;11.60;99.90
17565;DHT22;62994;52.126;5.596;2024-02-14T10:21:45;11.50;99.90
17565;DHT22;62994;52.126;5.596;2024-02-14T10:28:18;11.70;99.90
17565;DHT22;62994;52.126;5.596;2024-02-14T10:30:50;11.60;99.90
17565;DHT22;62994;52.126;5.596;2024-02-14T10:33:44;11.70;99.90
17565;DHT22;62994;52.126;5.596;2024-02-14T10:44:20;11.70;99.90
17565;DHT22;62994;52.126;5.596;2024-02-14T10:46:59;11.80;99.90
17565;DHT22;62994;52.126;5.596;2024-02-14T10:50:32;11.70;99.90
17565;DHT22;62994;52.126;5.596;2024-02-14T10:53:43;11.80;99.90
17565;DHT22;62994;52.126;5.596;2024-02-14T10:56:41;11.90;99.90
17565;DHT22;62994;52.126;5.596;2024-02-14T10:59:30;11.90;99.90
17565;DHT22;62994;52.126;5.596;2024-02-14T11:05:15;11.90;99.90
17565;DHT22;62994;52.126;5.596;2024-02-14T11:08:19;11.90;99.90
17565;DHT22;62994;52.126;5.596;2024-02-14T11:12:03;12.00;99.90
17565;DHT22;62994;52.126;5.596;2024-02-14T11:19:47;12.00;99.90
17565;DHT22;62994;52.126;5.596;2024-02-14T11:22:19;12.10;99.90
17565;DHT22;62994;52.126;5.596;2024-02-14T11:25:05;12.30;99.90
17565;DHT22;62994;52.126;5.596;2024-02-14T11:31:23;12.30;99.90
17565;DHT22;62994;52.126;5.596;2024-02-14T11:37:58;12.10;99.90
17565;DHT22;62994;52.126;5.596;2024-02-14T11:54:35;12.10;99.90
17565;DHT22;62994;52.126;5.596;2024-02-14T11:57:43;12.20;99.90
17565;DHT22;62994;52.126;5.596;2024-02-14T12:00:49;11.90;99.90
17565;DHT22;62994;52.126;5.596;2024-02-14T12:03:57;12.30;99.90
17565;DHT22;62994;52.126;5.596;2024-02-14T12:16:48;12.70;99.90
17565;DHT22;62994;52.126;5.596;2024-02-14T12:20:07;12.30;99.90
17565;DHT22;62994;52.126;5.596;2024-02-14T12:23:13;12.10;99.90
17565;DHT22;62994;52.126;5.596;2024-02-14T12:43:30;12.30;99.90
17565;DHT22;62994;52.126;5.596;2024-02-14T13:41:10;12.60;99.90
17565;DHT22;62994;52.126;5.596;2024-02-14T13:45:23;12.60;99.90
17565;DHT22;62994;52.126;5.596;2024-02-14T13:51:01;12.60;99.90
17565;DHT22;62994;52.126;5.596;2024-02-14T13:54:09;11.80;99.90
17565;DHT22;62994;52.126;5.596;2024-02-14T16:02:51;12.90;99.90
17565;DHT22;62994;52.126;5.596;2024-02-14T17:10:43;13.10;99.90
17565;DHT22;62994;52.126;5.596;2024-02-14T17:40:40;13.20;99.90
17565;DHT22;62994;52.126;5.596;2024-02-14T17:50:48;13.10;99.90
17565;DHT22;62994;52.126;5.596;2024-02-14T17:53:43;13.10;99.90
17565;DHT22;62994;52.126;5.596;2024-02-14T17:56:24;13.10;99.90
17565;DHT22;62994;52.126;5.596;2024-02-14T17:59:07;13.00;99.90
17565;DHT22;62994;52.126;5.596;2024-02-14T18:05:55;13.00;99.90
17565;DHT22;62994;52.126;5.596;2024-02-14T18:12:06;13.10;99.90
17565;DHT22;62994;52.126;5.596;2024-02-14T18:17:57;13.10;99.90
17565;DHT22;62994;52.126;5.596;2024-02-14T18:24:31;13.20;99.90
17565;DHT22;62994;52.126;5.596;2024-02-14T18:31:01;13.10;99.90
17565;DHT22;62994;52.126;5.596;2024-02-14T18:37:30;13.10;99.90
17565;DHT22;62994;52.126;5.596;2024-02-14T19:01:06;13.10;99.90
17565;DHT22;62994;52.126;5.596;2024-02-14T19:05:18;13.30;99.90
17565;DHT22;62994;52.126;5.596;2024-02-14T19:07:33;13.10;99.90
17565;DHT22;62994;52.126;5.596;2024-02-14T19:11:38;13.10;99.90
17565;DHT22;62994;52.126;5.596;2024-02-14T19:14:01;13.10;99.90
17565;DHT22;62994;52.126;5.596;2024-02-14T19:17:58;13.10;99.90
17565;DHT22;62994;52.126;5.596;2024-02-14T19:20:26;13.10;99.90
17565;DHT22;62994;52.126;5.596;2024-02-14T19:23:38;13.10;99.90
17565;DHT22;62994;52.126;5.596;2024-02-14T19:26:41;13.10;99.90
17565;DHT22;62994;52.126;5.596;2024-02-14T19:29:29;13.20;99.90
17565;DHT22;62994;52.126;5.596;2024-02-14T19:35:28;13.20;99.90
17565;DHT22;62994;52.126;5.596;2024-02-14T19:38:36;13.10;99.90
17565;DHT22;62994;52.126;5.596;2024-02-14T19:43:35;13.10;99.90
17565;DHT22;62994;52.126;5.596;2024-02-14T19:44:59;13.20;99.90
17565;DHT22;62994;52.126;5.596;2024-02-14T19:48:01;13.10;99.90
17565;DHT22;62994;52.126;5.596;2024-02-14T20:10:41;13.10;99.90
17565;DHT22;62994;52.126;5.596;2024-02-14T21:11:06;13.00;99.90
17565;DHT22;62994;52.126;5.596;2024-02-14T21:13:47;13.00;99.90
17565;DHT22;62994;52.126;5.596;2024-02-14T21:46:27;13.00;99.90
17565;DHT22;62994;52.126;5.596;2024-02-14T21:51:04;13.00;99.90
17565;DHT22;62994;52.126;5.596;2024-02-14T21:57:29;13.80;99.90
17565;DHT22;62994;52.126;5.596;2024-02-14T22:03:42;13.00;99.90
17565;DHT22;62994;52.126;5.596;2024-02-14T22:16:44;13.00;99.90
17565;DHT22;62994;52.126;5.596;2024-02-14T22:24:07;13.00;99.90
17565;DHT22;62994;52.126;5.596;2024-02-14T22:25:56;13.00;99.90
17565;DHT22;62994;52.126;5.596;2024-02-14T22:29:09;12.40;99.90
17565;DHT22;62994;52.126;5.596;2024-02-14T22:33:12;12.90;99.90
17565;DHT22;62994;52.126;5.596;2024-02-14T22:35:41;12.90;99.90
17565;DHT22;62994;52.126;5.596;2024-02-14T22:39:28;13.00;99.90
17565;DHT22;62994;52.126;5.596;2024-02-14T22:42:52;12.40;99.90
17565;DHT22;62994;52.126;5.596;2024-02-14T22:45:46;13.00;99.90
17565;DHT22;62994;52.126;5.596;2024-02-14T22:48:38;13.00;99.90
17565;DHT22;62994;52.126;5.596;2024-02-14T22:51:37;13.30;99.90
17565;DHT22;62994;52.126;5.596;2024-02-14T22:58:04;13.00;99.90
17565;DHT22;62994;52.126;5.596;2024-02-14T23:01:15;12.60;99.90
17565;DHT22;62994;52.126;5.596;2024-02-14T23:04:07;13.00;99.90
17565;DHT22;62994;52.126;5.596;2024-02-14T23:11:17;13.10;99.90
17565;DHT22;62994;52.126;5.596;2024-02-14T23:14:02;13.00;99.90
17565;DHT22;62994;52.126;5.596;2024-02-14T23:17:10;12.90;99.90
17565;DHT22;62994;52.126;5.596;2024-02-14T23:20:21;13.00;99.90
17565;DHT22;62994;52.126;5.596;2024-02-14T23:22:48;13.10;99.90
17565;DHT22;62994;52.126;5.596;2024-02-14T23:25:16;13.20;99.90
17565;DHT22;62994;52.126;5.596;2024-02-14T23:27:43;13.10;99.90
17565;DHT22;62994;52.126;5.596;2024-02-14T23:30:11;13.10;99.90
17565;DHT22;62994;52.126;5.596;2024-02-14T23:32:39;13.20;99.90
17565;DHT22;62994;52.126;5.596;2024-02-14T23:35:07;13.20;99.90
17565;DHT22;62994;52.126;5.596;2024-02-14T23:37:37;13.20;99.90
17565;DHT22;62994;52.126;5.596;2024-02-14T23:40:10;13.20;99.90
17565;DHT22;62994;52.126;5.596;2024-02-14T23:42:38;13.20;99.90
17565;DHT22;62994;52.126;5.596;2024-02-14T23:45:11;13.20;99.90
17565;DHT22;62994;52.126;5.596;2024-02-14T23:47:40;13.20;99.90
17565;DHT22;62994;52.126;5.596;2024-02-14T23:50:08;13.20;99.90
17565;DHT22;62994;52.126;5.596;2024-02-14T23:52:37;13.20;99.90
17565;DHT22;62994;52.126;5.596;2024-02-14T23:55:07;13.20;99.90
17565;DHT22;62994;52.126;5.596;2024-02-14T23:57:35;13.20;99.90
